sensor_id;sensor_type;location;lat;lon;timestamp;temperature;humidity
16032;DHT22;8120;48.308;8.914;2023-05-29T00:02:18;9.60;74.80
16032;DHT22;8120;48.308;8.914;2023-05-29T00:04:46;9.60;74.30
16032;DHT22;8120;48.308;8.914;2023-05-29T00:07:15;9.50;75.20
16032;DHT22;8120;48.308;8.914;2023-05-29T00:09:43;9.50;75.30
16032;DHT22;8120;48.308;8.914;2023-05-29T00:12:11;9.40;75.80
16032;DHT22;8120;48.308;8.914;2023-05-29T00:14:40;9.30;75.80
16032;DHT22;8120;48.308;8.914;2023-05-29T00:17:08;9.20;76.20
16032;DHT22;8120;48.308;8.914;2023-05-29T00:19:37;9.20;76.20
16032;DHT22;8120;48.308;8.914;2023-05-29T00:22:05;9.00;75.30
16032;DHT22;8120;48.308;8.914;2023-05-29T00:24:32;9.00;77.60
16032;DHT22;8120;48.308;8.914;2023-05-29T00:27:00;9.00;77.80
16032;DHT22;8120;48.308;8.914;2023-05-29T00:29:29;9.00;77.50
16032;DHT22;8120;48.308;8.914;2023-05-29T00:31:57;9.00;77.30
16032;DHT22;8120;48.308;8.914;2023-05-29T00:34:25;8.90;77.80
16032;DHT22;8120;48.308;8.914;2023-05-29T00:36:54;8.90;77.50
16032;DHT22;8120;48.308;8.914;2023-05-29T00:39:22;8.80;78.20
16032;DHT22;8120;48.308;8.914;2023-05-29T00:41:50;8.80;78.50
16032;DHT22;8120;48.308;8.914;2023-05-29T00:44:18;8.70;78.70
16032;DHT22;8120;48.308;8.914;2023-05-29T00:46:46;8.70;78.10
16032;DHT22;8120;48.308;8.914;2023-05-29T00:49:16;8.70;77.60
16032;DHT22;8120;48.308;8.914;2023-05-29T00:51:44;8.70;78.80
16032;DHT22;8120;48.308;8.914;2023-05-29T00:54:20;8.70;78.70
16032;DHT22;8120;48.308;8.914;2023-05-29T00:56:48;8.60;78.80
16032;DHT22;8120;48.308;8.914;2023-05-29T00:59:16;8.60;78.90
16032;DHT22;8120;48.308;8.914;2023-05-29T01:01:45;8.60;78.90
16032;DHT22;8120;48.308;8.914;2023-05-29T01:04:15;8.60;79.00
16032;DHT22;8120;48.308;8.914;2023-05-29T01:06:44;8.50;78.80
16032;DHT22;8120;48.308;8.914;2023-05-29T01:09:13;8.30;79.40
16032;DHT22;8120;48.308;8.914;2023-05-29T01:11:45;8.30;80.00
16032;DHT22;8120;48.308;8.914;2023-05-29T01:14:21;8.20;80.30
16032;DHT22;8120;48.308;8.914;2023-05-29T01:16:58;8.20;80.40
16032;DHT22;8120;48.308;8.914;2023-05-29T01:19:45;8.10;80.40
16032;DHT22;8120;48.308;8.914;2023-05-29T01:22:24;8.10;80.40
16032;DHT22;8120;48.308;8.914;2023-05-29T01:25:00;8.00;80.40
16032;DHT22;8120;48.308;8.914;2023-05-29T01:27:34;7.90;80.00
16032;DHT22;8120;48.308;8.914;2023-05-29T01:30:04;7.90;81.50
16032;DHT22;8120;48.308;8.914;2023-05-29T01:32:33;7.80;80.90
16032;DHT22;8120;48.308;8.914;2023-05-29T01:35:02;7.80;80.70
16032;DHT22;8120;48.308;8.914;2023-05-29T01:37:30;7.80;81.40
16032;DHT22;8120;48.308;8.914;2023-05-29T01:39:57;7.80;81.80
16032;DHT22;8120;48.308;8.914;2023-05-29T01:42:26;7.80;82.20
16032;DHT22;8120;48.308;8.914;2023-05-29T01:44:57;7.80;81.70
16032;DHT22;8120;48.308;8.914;2023-05-29T01:47:26;7.90;82.40
16032;DHT22;8120;48.308;8.914;2023-05-29T01:49:54;7.90;82.00
16032;DHT22;8120;48.308;8.914;2023-05-29T01:52:23;7.80;81.90
16032;DHT22;8120;48.308;8.914;2023-05-29T01:54:51;7.70;82.00
16032;DHT22;8120;48.308;8.914;2023-05-29T01:57:19;7.70;81.80
16032;DHT22;8120;48.308;8.914;2023-05-29T01:59:48;7.60;81.50
16032;DHT22;8120;48.308;8.914;2023-05-29T02:02:17;7.50;81.40
16032;DHT22;8120;48.308;8.914;2023-05-29T02:04:45;7.40;81.70
16032;DHT22;8120;48.308;8.914;2023-05-29T02:07:13;7.40;82.00
16032;DHT22;8120;48.308;8.914;2023-05-29T02:09:42;7.40;82.00
16032;DHT22;8120;48.308;8.914;2023-05-29T02:12:09;7.30;81.50
16032;DHT22;8120;48.308;8.914;2023-05-29T02:14:37;7.30;82.40
16032;DHT22;8120;48.308;8.914;2023-05-29T02:17:06;7.30;83.00
16032;DHT22;8120;48.308;8.914;2023-05-29T02:19:37;7.20;82.50
16032;DHT22;8120;48.308;8.914;2023-05-29T02:22:04;7.20;83.10
16032;DHT22;8120;48.308;8.914;2023-05-29T02:24:33;7.20;83.60
16032;DHT22;8120;48.308;8.914;2023-05-29T02:27:01;7.10;83.90
16032;DHT22;8120;48.308;8.914;2023-05-29T02:29:29;7.20;83.30
16032;DHT22;8120;48.308;8.914;2023-05-29T02:31:57;7.20;83.00
16032;DHT22;8120;48.308;8.914;2023-05-29T02:34:25;7.20;83.40
16032;DHT22;8120;48.308;8.914;2023-05-29T02:36:54;7.20;83.60
16032;DHT22;8120;48.308;8.914;2023-05-29T02:39:23;7.20;82.80
16032;DHT22;8120;48.308;8.914;2023-05-29T02:41:51;7.10;82.50
16032;DHT22;8120;48.308;8.914;2023-05-29T02:44:19;7.00;82.00
16032;DHT22;8120;48.308;8.914;2023-05-29T02:46:46;7.00;83.70
16032;DHT22;8120;48.308;8.914;2023-05-29T02:49:18;7.00;83.30
16032;DHT22;8120;48.308;8.914;2023-05-29T02:51:46;6.90;82.90
16032;DHT22;8120;48.308;8.914;2023-05-29T02:54:15;6.90;83.40
16032;DHT22;8120;48.308;8.914;2023-05-29T02:56:43;7.10;85.00
16032;DHT22;8120;48.308;8.914;2023-05-29T02:59:11;7.20;84.00
16032;DHT22;8120;48.308;8.914;2023-05-29T03:01:39;7.10;83.60
16032;DHT22;8120;48.308;8.914;2023-05-29T03:04:07;7.00;83.20
16032;DHT22;8120;48.308;8.914;2023-05-29T03:06:35;6.90;83.60
16032;DHT22;8120;48.308;8.914;2023-05-29T03:09:04;6.90;84.30
16032;DHT22;8120;48.308;8.914;2023-05-29T03:11:34;6.80;83.20
16032;DHT22;8120;48.308;8.914;2023-05-29T03:14:02;6.70;83.50
16032;DHT22;8120;48.308;8.914;2023-05-29T03:16:30;6.60;84.20
16032;DHT22;8120;48.308;8.914;2023-05-29T03:18:58;6.60;84.40
16032;DHT22;8120;48.308;8.914;2023-05-29T03:21:26;6.60;85.50
16032;DHT22;8120;48.308;8.914;2023-05-29T03:23:54;6.60;85.50
16032;DHT22;8120;48.308;8.914;2023-05-29T03:26:22;6.60;84.80
16032;DHT22;8120;48.308;8.914;2023-05-29T03:28:51;6.60;85.00
16032;DHT22;8120;48.308;8.914;2023-05-29T03:31:19;6.50;84.90
16032;DHT22;8120;48.308;8.914;2023-05-29T03:33:47;6.50;83.80
16032;DHT22;8120;48.308;8.914;2023-05-29T03:36:14;6.50;85.30
16032;DHT22;8120;48.308;8.914;2023-05-29T03:38:44;6.50;84.60
16032;DHT22;8120;48.308;8.914;2023-05-29T03:41:12;6.60;85.40
16032;DHT22;8120;48.308;8.914;2023-05-29T03:43:39;6.70;85.70
16032;DHT22;8120;48.308;8.914;2023-05-29T03:46:09;6.70;85.40
16032;DHT22;8120;48.308;8.914;2023-05-29T03:48:36;6.60;84.30
16032;DHT22;8120;48.308;8.914;2023-05-29T03:51:05;6.70;84.60
16032;DHT22;8120;48.308;8.914;2023-05-29T03:53:33;6.80;84.30
16032;DHT22;8120;48.308;8.914;2023-05-29T03:56:01;7.10;83.40
16032;DHT22;8120;48.308;8.914;2023-05-29T03:58:29;7.50;81.90
16032;DHT22;8120;48.308;8.914;2023-05-29T04:00:57;7.80;80.40
16032;DHT22;8120;48.308;8.914;2023-05-29T04:03:26;8.00;78.00
16032;DHT22;8120;48.308;8.914;2023-05-29T04:05:55;8.30;77.80
16032;DHT22;8120;48.308;8.914;2023-05-29T04:08:24;8.60;75.50
16032;DHT22;8120;48.308;8.914;2023-05-29T04:10:52;8.80;74.80
16032;DHT22;8120;48.308;8.914;2023-05-29T04:13:20;9.10;75.10
16032;DHT22;8120;48.308;8.914;2023-05-29T04:15:48;9.30;71.80
16032;DHT22;8120;48.308;8.914;2023-05-29T04:18:19;9.60;73.50
16032;DHT22;8120;48.308;8.914;2023-05-29T04:20:48;9.70;71.90
16032;DHT22;8120;48.308;8.914;2023-05-29T04:23:17;9.90;71.90
16032;DHT22;8120;48.308;8.914;2023-05-29T04:25:45;10.30;70.00
16032;DHT22;8120;48.308;8.914;2023-05-29T04:28:13;10.40;69.40
16032;DHT22;8120;48.308;8.914;2023-05-29T04:30:42;10.70;69.40
16032;DHT22;8120;48.308;8.914;2023-05-29T04:33:09;10.90;67.60
16032;DHT22;8120;48.308;8.914;2023-05-29T04:35:39;11.10;68.60
16032;DHT22;8120;48.308;8.914;2023-05-29T04:38:11;11.40;66.20
16032;DHT22;8120;48.308;8.914;2023-05-29T04:40:39;11.60;66.80
16032;DHT22;8120;48.308;8.914;2023-05-29T04:43:08;12.10;64.00
16032;DHT22;8120;48.308;8.914;2023-05-29T04:45:35;12.00;65.40
16032;DHT22;8120;48.308;8.914;2023-05-29T04:48:04;12.60;62.30
16032;DHT22;8120;48.308;8.914;2023-05-29T04:50:32;12.80;62.10
16032;DHT22;8120;48.308;8.914;2023-05-29T04:53:01;12.80;61.90
16032;DHT22;8120;48.308;8.914;2023-05-29T04:55:30;13.00;61.50
16032;DHT22;8120;48.308;8.914;2023-05-29T04:57:58;13.10;60.90
16032;DHT22;8120;48.308;8.914;2023-05-29T05:00:26;12.70;63.10
16032;DHT22;8120;48.308;8.914;2023-05-29T05:02:54;12.70;63.60
16032;DHT22;8120;48.308;8.914;2023-05-29T05:05:23;12.70;64.00
16032;DHT22;8120;48.308;8.914;2023-05-29T05:07:50;13.00;64.30
16032;DHT22;8120;48.308;8.914;2023-05-29T05:10:18;13.50;60.90
16032;DHT22;8120;48.308;8.914;2023-05-29T05:12:48;13.40;61.60
16032;DHT22;8120;48.308;8.914;2023-05-29T05:15:15;13.60;62.80
16032;DHT22;8120;48.308;8.914;2023-05-29T05:17:43;14.10;61.10
16032;DHT22;8120;48.308;8.914;2023-05-29T05:20:12;13.60;63.30
16032;DHT22;8120;48.308;8.914;2023-05-29T05:22:40;13.10;64.70
16032;DHT22;8120;48.308;8.914;2023-05-29T05:25:08;12.80;66.00
16032;DHT22;8120;48.308;8.914;2023-05-29T05:27:36;13.10;65.30
16032;DHT22;8120;48.308;8.914;2023-05-29T05:30:07;13.30;64.60
16032;DHT22;8120;48.308;8.914;2023-05-29T05:32:34;14.10;61.60
16032;DHT22;8120;48.308;8.914;2023-05-29T05:35:03;14.90;58.90
16032;DHT22;8120;48.308;8.914;2023-05-29T05:37:31;14.80;58.20
16032;DHT22;8120;48.308;8.914;2023-05-29T05:39:59;14.80;57.70
16032;DHT22;8120;48.308;8.914;2023-05-29T05:42:27;14.50;58.20
16032;DHT22;8120;48.308;8.914;2023-05-29T05:44:55;14.20;58.00
16032;DHT22;8120;48.308;8.914;2023-05-29T05:47:24;14.00;60.20
16032;DHT22;8120;48.308;8.914;2023-05-29T05:49:53;14.20;60.30
16032;DHT22;8120;48.308;8.914;2023-05-29T05:52:21;14.20;60.20
16032;DHT22;8120;48.308;8.914;2023-05-29T05:54:50;14.10;60.50
16032;DHT22;8120;48.308;8.914;2023-05-29T05:57:18;14.60;60.00
16032;DHT22;8120;48.308;8.914;2023-05-29T05:59:45;14.70;60.50
16032;DHT22;8120;48.308;8.914;2023-05-29T06:02:13;14.90;60.20
16032;DHT22;8120;48.308;8.914;2023-05-29T06:04:43;14.70;60.20
16032;DHT22;8120;48.308;8.914;2023-05-29T06:07:11;15.30;59.30
16032;DHT22;8120;48.308;8.914;2023-05-29T06:09:39;15.40;57.80
16032;DHT22;8120;48.308;8.914;2023-05-29T06:12:07;14.70;60.90
16032;DHT22;8120;48.308;8.914;2023-05-29T06:14:36;14.50;61.30
16032;DHT22;8120;48.308;8.914;2023-05-29T06:17:04;15.00;59.00
16032;DHT22;8120;48.308;8.914;2023-05-29T06:19:32;16.30;55.80
16032;DHT22;8120;48.308;8.914;2023-05-29T06:22:01;16.90;54.10
16032;DHT22;8120;48.308;8.914;2023-05-29T06:24:29;17.40;51.90
16032;DHT22;8120;48.308;8.914;2023-05-29T06:26:57;18.00;50.90
16032;DHT22;8120;48.308;8.914;2023-05-29T06:29:25;17.70;51.10
16032;DHT22;8120;48.308;8.914;2023-05-29T06:31:53;17.80;51.00
16032;DHT22;8120;48.308;8.914;2023-05-29T06:34:21;17.90;50.30
16032;DHT22;8120;48.308;8.914;2023-05-29T06:36:48;18.20;50.70
16032;DHT22;8120;48.308;8.914;2023-05-29T06:39:18;18.80;48.70
16032;DHT22;8120;48.308;8.914;2023-05-29T06:41:47;17.70;51.20
16032;DHT22;8120;48.308;8.914;2023-05-29T06:44:15;18.20;50.20
16032;DHT22;8120;48.308;8.914;2023-05-29T06:46:42;18.10;51.10
16032;DHT22;8120;48.308;8.914;2023-05-29T06:49:10;17.60;53.20
16032;DHT22;8120;48.308;8.914;2023-05-29T06:51:38;17.10;54.50
16032;DHT22;8120;48.308;8.914;2023-05-29T06:54:06;18.20;50.80
16032;DHT22;8120;48.308;8.914;2023-05-29T06:56:35;18.70;49.60
16032;DHT22;8120;48.308;8.914;2023-05-29T06:59:03;18.60;49.70
16032;DHT22;8120;48.308;8.914;2023-05-29T07:01:31;18.70;49.30
16032;DHT22;8120;48.308;8.914;2023-05-29T07:03:59;18.10;52.10
16032;DHT22;8120;48.308;8.914;2023-05-29T07:06:27;18.40;51.10
16032;DHT22;8120;48.308;8.914;2023-05-29T07:08:55;18.80;50.30
16032;DHT22;8120;48.308;8.914;2023-05-29T07:11:23;18.80;50.40
16032;DHT22;8120;48.308;8.914;2023-05-29T07:13:53;18.70;50.80
16032;DHT22;8120;48.308;8.914;2023-05-29T07:16:21;18.80;50.20
16032;DHT22;8120;48.308;8.914;2023-05-29T07:18:51;18.40;52.00
16032;DHT22;8120;48.308;8.914;2023-05-29T07:21:19;18.50;50.90
16032;DHT22;8120;48.308;8.914;2023-05-29T07:23:47;19.00;50.20
16032;DHT22;8120;48.308;8.914;2023-05-29T07:26:15;18.90;50.90
16032;DHT22;8120;48.308;8.914;2023-05-29T07:28:43;19.00;50.30
16032;DHT22;8120;48.308;8.914;2023-05-29T07:31:12;19.70;49.00
16032;DHT22;8120;48.308;8.914;2023-05-29T07:33:40;20.10;48.60
16032;DHT22;8120;48.308;8.914;2023-05-29T07:36:08;19.70;49.10
16032;DHT22;8120;48.308;8.914;2023-05-29T07:38:36;19.70;49.40
16032;DHT22;8120;48.308;8.914;2023-05-29T07:41:04;19.90;49.20
16032;DHT22;8120;48.308;8.914;2023-05-29T07:43:32;19.70;51.00
16032;DHT22;8120;48.308;8.914;2023-05-29T07:46:00;19.80;50.20
16032;DHT22;8120;48.308;8.914;2023-05-29T07:48:29;20.00;50.40
16032;DHT22;8120;48.308;8.914;2023-05-29T07:50:57;20.40;48.70
16032;DHT22;8120;48.308;8.914;2023-05-29T07:53:25;20.10;50.10
16032;DHT22;8120;48.308;8.914;2023-05-29T07:55:53;20.10;50.00
16032;DHT22;8120;48.308;8.914;2023-05-29T07:58:21;20.30;49.90
16032;DHT22;8120;48.308;8.914;2023-05-29T08:00:49;20.10;49.80
16032;DHT22;8120;48.308;8.914;2023-05-29T08:03:17;19.90;51.00
16032;DHT22;8120;48.308;8.914;2023-05-29T08:05:46;19.80;50.60
16032;DHT22;8120;48.308;8.914;2023-05-29T08:08:14;20.20;50.20
16032;DHT22;8120;48.308;8.914;2023-05-29T08:10:42;20.30;50.30
16032;DHT22;8120;48.308;8.914;2023-05-29T08:13:10;20.10;50.40
16032;DHT22;8120;48.308;8.914;2023-05-29T08:15:38;20.30;50.60
16032;DHT22;8120;48.308;8.914;2023-05-29T08:18:06;20.40;48.50
16032;DHT22;8120;48.308;8.914;2023-05-29T08:20:34;20.40;48.70
16032;DHT22;8120;48.308;8.914;2023-05-29T08:23:03;20.50;46.40
16032;DHT22;8120;48.308;8.914;2023-05-29T08:25:31;20.20;48.50
16032;DHT22;8120;48.308;8.914;2023-05-29T08:27:59;19.90;49.10
16032;DHT22;8120;48.308;8.914;2023-05-29T08:30:27;19.80;49.90
16032;DHT22;8120;48.308;8.914;2023-05-29T08:32:55;20.10;50.30
16032;DHT22;8120;48.308;8.914;2023-05-29T08:35:23;20.00;50.20
16032;DHT22;8120;48.308;8.914;2023-05-29T08:37:51;20.30;50.20
16032;DHT22;8120;48.308;8.914;2023-05-29T08:40:20;20.60;48.90
16032;DHT22;8120;48.308;8.914;2023-05-29T08:42:54;20.60;49.10
16032;DHT22;8120;48.308;8.914;2023-05-29T08:45:24;20.80;48.70
16032;DHT22;8120;48.308;8.914;2023-05-29T08:47:53;21.10;47.50
16032;DHT22;8120;48.308;8.914;2023-05-29T08:50:22;21.00;48.20
16032;DHT22;8120;48.308;8.914;2023-05-29T08:52:50;20.80;48.50
16032;DHT22;8120;48.308;8.914;2023-05-29T08:55:20;20.80;49.10
16032;DHT22;8120;48.308;8.914;2023-05-29T08:57:48;20.30;48.90
16032;DHT22;8120;48.308;8.914;2023-05-29T09:00:17;20.70;49.80
16032;DHT22;8120;48.308;8.914;2023-05-29T09:02:47;20.90;47.80
16032;DHT22;8120;48.308;8.914;2023-05-29T09:05:16;21.40;46.20
16032;DHT22;8120;48.308;8.914;2023-05-29T09:07:43;21.40;45.70
16032;DHT22;8120;48.308;8.914;2023-05-29T09:10:12;21.10;46.40
16032;DHT22;8120;48.308;8.914;2023-05-29T09:12:43;21.10;47.30
16032;DHT22;8120;48.308;8.914;2023-05-29T09:15:17;21.50;46.20
16032;DHT22;8120;48.308;8.914;2023-05-29T09:17:49;21.70;46.10
16032;DHT22;8120;48.308;8.914;2023-05-29T09:20:19;22.00;46.70
16032;DHT22;8120;48.308;8.914;2023-05-29T09:22:53;22.30;45.40
16032;DHT22;8120;48.308;8.914;2023-05-29T09:25:22;22.40;44.80
16032;DHT22;8120;48.308;8.914;2023-05-29T09:27:55;21.90;45.70
16032;DHT22;8120;48.308;8.914;2023-05-29T09:30:37;22.20;45.70
16032;DHT22;8120;48.308;8.914;2023-05-29T09:33:06;22.30;46.40
16032;DHT22;8120;48.308;8.914;2023-05-29T09:35:36;22.30;45.60
16032;DHT22;8120;48.308;8.914;2023-05-29T09:38:05;21.90;46.20
16032;DHT22;8120;48.308;8.914;2023-05-29T09:40:33;21.50;46.50
16032;DHT22;8120;48.308;8.914;2023-05-29T09:43:04;22.00;46.30
16032;DHT22;8120;48.308;8.914;2023-05-29T09:45:37;22.00;46.30
16032;DHT22;8120;48.308;8.914;2023-05-29T09:48:07;22.20;45.40
16032;DHT22;8120;48.308;8.914;2023-05-29T09:50:35;21.60;46.40
16032;DHT22;8120;48.308;8.914;2023-05-29T09:53:03;21.90;46.50
16032;DHT22;8120;48.308;8.914;2023-05-29T09:55:43;22.10;45.80
16032;DHT22;8120;48.308;8.914;2023-05-29T09:58:13;22.50;44.00
16032;DHT22;8120;48.308;8.914;2023-05-29T10:00:42;22.60;43.90
16032;DHT22;8120;48.308;8.914;2023-05-29T10:03:10;23.00;42.70
16032;DHT22;8120;48.308;8.914;2023-05-29T10:05:39;22.80;44.40
16032;DHT22;8120;48.308;8.914;2023-05-29T10:08:09;22.40;43.90
16032;DHT22;8120;48.308;8.914;2023-05-29T10:10:41;22.60;45.40
16032;DHT22;8120;48.308;8.914;2023-05-29T10:13:11;22.70;44.40
16032;DHT22;8120;48.308;8.914;2023-05-29T10:15:43;23.20;44.00
16032;DHT22;8120;48.308;8.914;2023-05-29T10:18:26;22.90;41.50
16032;DHT22;8120;48.308;8.914;2023-05-29T10:20:56;22.80;42.90
16032;DHT22;8120;48.308;8.914;2023-05-29T10:23:26;22.50;43.60
16032;DHT22;8120;48.308;8.914;2023-05-29T10:26:02;22.50;42.80
16032;DHT22;8120;48.308;8.914;2023-05-29T10:28:33;22.70;42.30
16032;DHT22;8120;48.308;8.914;2023-05-29T10:31:09;23.00;43.00
16032;DHT22;8120;48.308;8.914;2023-05-29T10:33:47;23.10;43.70
16032;DHT22;8120;48.308;8.914;2023-05-29T10:36:19;23.30;41.60
16032;DHT22;8120;48.308;8.914;2023-05-29T10:38:49;23.40;39.60
16032;DHT22;8120;48.308;8.914;2023-05-29T10:41:29;23.50;36.30
16032;DHT22;8120;48.308;8.914;2023-05-29T10:43:58;23.10;35.60
16032;DHT22;8120;48.308;8.914;2023-05-29T10:49:32;22.70;36.70
16032;DHT22;8120;48.308;8.914;2023-05-29T10:52:04;22.70;39.30
16032;DHT22;8120;48.308;8.914;2023-05-29T10:54:51;22.90;42.50
16032;DHT22;8120;48.308;8.914;2023-05-29T10:57:24;23.00;38.90
16032;DHT22;8120;48.308;8.914;2023-05-29T11:00:07;23.30;40.70
16032;DHT22;8120;48.308;8.914;2023-05-29T11:02:40;23.60;41.60
16032;DHT22;8120;48.308;8.914;2023-05-29T11:05:23;23.40;43.50
16032;DHT22;8120;48.308;8.914;2023-05-29T11:07:53;23.40;43.20
16032;DHT22;8120;48.308;8.914;2023-05-29T11:10:45;23.20;41.80
16032;DHT22;8120;48.308;8.914;2023-05-29T11:13:24;23.10;42.10
16032;DHT22;8120;48.308;8.914;2023-05-29T11:16:10;23.20;41.70
16032;DHT22;8120;48.308;8.914;2023-05-29T11:18:41;23.40;41.50
16032;DHT22;8120;48.308;8.914;2023-05-29T11:21:24;23.20;41.60
16032;DHT22;8120;48.308;8.914;2023-05-29T11:23:57;23.10;42.70
16032;DHT22;8120;48.308;8.914;2023-05-29T11:26:27;23.10;42.50
16032;DHT22;8120;48.308;8.914;2023-05-29T11:28:57;23.10;43.00
16032;DHT22;8120;48.308;8.914;2023-05-29T11:31:27;23.20;41.80
16032;DHT22;8120;48.308;8.914;2023-05-29T11:33:59;23.10;41.90
16032;DHT22;8120;48.308;8.914;2023-05-29T11:36:30;23.10;42.10
16032;DHT22;8120;48.308;8.914;2023-05-29T11:38:59;22.90;42.30
16032;DHT22;8120;48.308;8.914;2023-05-29T11:41:27;23.10;41.50
16032;DHT22;8120;48.308;8.914;2023-05-29T11:43:59;23.00;42.10
16032;DHT22;8120;48.308;8.914;2023-05-29T11:46:28;23.30;41.50
16032;DHT22;8120;48.308;8.914;2023-05-29T11:48:59;23.10;40.80
16032;DHT22;8120;48.308;8.914;2023-05-29T11:51:28;23.10;41.80
16032;DHT22;8120;48.308;8.914;2023-05-29T11:53:56;23.20;41.80
16032;DHT22;8120;48.308;8.914;2023-05-29T11:56:26;23.20;41.90
16032;DHT22;8120;48.308;8.914;2023-05-29T11:58:54;23.30;41.90
16032;DHT22;8120;48.308;8.914;2023-05-29T12:01:24;22.80;41.90
16032;DHT22;8120;48.308;8.914;2023-05-29T12:03:53;22.80;41.90
16032;DHT22;8120;48.308;8.914;2023-05-29T12:06:35;23.00;42.40
16032;DHT22;8120;48.308;8.914;2023-05-29T12:09:04;23.20;42.50
16032;DHT22;8120;48.308;8.914;2023-05-29T12:11:34;22.90;41.30
16032;DHT22;8120;48.308;8.914;2023-05-29T12:14:02;23.10;41.90
16032;DHT22;8120;48.308;8.914;2023-05-29T12:16:31;23.30;41.30
16032;DHT22;8120;48.308;8.914;2023-05-29T12:19:00;23.40;41.00
16032;DHT22;8120;48.308;8.914;2023-05-29T12:21:28;23.90;39.90
16032;DHT22;8120;48.308;8.914;2023-05-29T12:23:57;23.40;40.60
16032;DHT22;8120;48.308;8.914;2023-05-29T12:26:29;23.00;41.20
16032;DHT22;8120;48.308;8.914;2023-05-29T12:29:02;23.10;40.80
16032;DHT22;8120;48.308;8.914;2023-05-29T12:31:31;23.10;40.80
16032;DHT22;8120;48.308;8.914;2023-05-29T12:34:01;22.90;40.60
16032;DHT22;8120;48.308;8.914;2023-05-29T12:36:30;22.90;40.90
16032;DHT22;8120;48.308;8.914;2023-05-29T12:39:06;23.10;40.40
16032;DHT22;8120;48.308;8.914;2023-05-29T12:41:36;22.90;40.20
16032;DHT22;8120;48.308;8.914;2023-05-29T12:44:05;23.20;40.70
16032;DHT22;8120;48.308;8.914;2023-05-29T12:46:38;23.40;39.90
16032;DHT22;8120;48.308;8.914;2023-05-29T12:49:13;23.30;40.50
16032;DHT22;8120;48.308;8.914;2023-05-29T12:51:41;23.00;40.20
16032;DHT22;8120;48.308;8.914;2023-05-29T12:54:12;22.90;39.80
16032;DHT22;8120;48.308;8.914;2023-05-29T12:56:41;23.10;40.30
16032;DHT22;8120;48.308;8.914;2023-05-29T12:59:10;23.30;39.60
16032;DHT22;8120;48.308;8.914;2023-05-29T13:01:38;23.50;39.90
16032;DHT22;8120;48.308;8.914;2023-05-29T13:04:07;23.20;39.50
16032;DHT22;8120;48.308;8.914;2023-05-29T13:06:37;23.60;39.80
16032;DHT22;8120;48.308;8.914;2023-05-29T13:09:06;23.60;39.20
16032;DHT22;8120;48.308;8.914;2023-05-29T13:11:36;23.70;38.30
16032;DHT22;8120;48.308;8.914;2023-05-29T13:14:04;23.30;38.50
16032;DHT22;8120;48.308;8.914;2023-05-29T13:16:32;23.60;39.30
16032;DHT22;8120;48.308;8.914;2023-05-29T13:19:01;23.50;37.60
16032;DHT22;8120;48.308;8.914;2023-05-29T13:21:29;23.00;38.80
16032;DHT22;8120;48.308;8.914;2023-05-29T13:23:57;23.20;37.20
16032;DHT22;8120;48.308;8.914;2023-05-29T13:26:25;23.20;37.00
16032;DHT22;8120;48.308;8.914;2023-05-29T13:28:54;23.20;37.00
16032;DHT22;8120;48.308;8.914;2023-05-29T13:31:22;23.30;36.40
16032;DHT22;8120;48.308;8.914;2023-05-29T13:33:50;23.20;36.10
16032;DHT22;8120;48.308;8.914;2023-05-29T13:36:19;23.10;35.40
16032;DHT22;8120;48.308;8.914;2023-05-29T13:38:46;22.90;35.50
16032;DHT22;8120;48.308;8.914;2023-05-29T13:41:14;23.30;35.40
16032;DHT22;8120;48.308;8.914;2023-05-29T13:43:42;23.30;34.70
16032;DHT22;8120;48.308;8.914;2023-05-29T13:46:12;23.20;34.50
16032;DHT22;8120;48.308;8.914;2023-05-29T13:48:41;23.20;34.50
16032;DHT22;8120;48.308;8.914;2023-05-29T13:51:09;23.10;35.30
16032;DHT22;8120;48.308;8.914;2023-05-29T13:53:37;23.30;35.00
16032;DHT22;8120;48.308;8.914;2023-05-29T13:56:05;23.30;35.50
16032;DHT22;8120;48.308;8.914;2023-05-29T13:58:33;23.20;35.20
16032;DHT22;8120;48.308;8.914;2023-05-29T14:01:01;23.00;35.40
16032;DHT22;8120;48.308;8.914;2023-05-29T14:03:30;23.10;35.20
16032;DHT22;8120;48.308;8.914;2023-05-29T14:05:59;23.10;35.10
16032;DHT22;8120;48.308;8.914;2023-05-29T14:08:28;23.40;34.60
16032;DHT22;8120;48.308;8.914;2023-05-29T14:10:56;23.60;35.00
16032;DHT22;8120;48.308;8.914;2023-05-29T14:13:24;23.40;34.30
16032;DHT22;8120;48.308;8.914;2023-05-29T14:15:52;23.60;35.00
16032;DHT22;8120;48.308;8.914;2023-05-29T14:18:23;23.60;34.70
16032;DHT22;8120;48.308;8.914;2023-05-29T14:20:52;23.40;34.60
16032;DHT22;8120;48.308;8.914;2023-05-29T14:23:20;23.50;35.00
16032;DHT22;8120;48.308;8.914;2023-05-29T14:25:48;23.30;34.40
16032;DHT22;8120;48.308;8.914;2023-05-29T14:28:17;23.70;35.10
16032;DHT22;8120;48.308;8.914;2023-05-29T14:30:45;23.50;34.80
16032;DHT22;8120;48.308;8.914;2023-05-29T14:33:13;23.20;35.20
16032;DHT22;8120;48.308;8.914;2023-05-29T14:35:41;23.30;34.90
16032;DHT22;8120;48.308;8.914;2023-05-29T14:38:10;23.10;34.90
16032;DHT22;8120;48.308;8.914;2023-05-29T14:40:38;23.10;35.50
16032;DHT22;8120;48.308;8.914;2023-05-29T14:43:06;22.90;35.80
16032;DHT22;8120;48.308;8.914;2023-05-29T14:45:33;23.10;36.00
16032;DHT22;8120;48.308;8.914;2023-05-29T14:48:02;23.10;35.30
16032;DHT22;8120;48.308;8.914;2023-05-29T14:50:31;23.40;36.20
16032;DHT22;8120;48.308;8.914;2023-05-29T14:52:59;23.30;35.70
16032;DHT22;8120;48.308;8.914;2023-05-29T14:55:28;23.10;35.40
16032;DHT22;8120;48.308;8.914;2023-05-29T14:57:57;23.10;35.30
16032;DHT22;8120;48.308;8.914;2023-05-29T15:00:25;23.10;35.30
16032;DHT22;8120;48.308;8.914;2023-05-29T15:02:53;23.10;35.50
16032;DHT22;8120;48.308;8.914;2023-05-29T15:05:24;23.20;35.40
16032;DHT22;8120;48.308;8.914;2023-05-29T15:07:51;23.40;35.40
16032;DHT22;8120;48.308;8.914;2023-05-29T15:10:21;23.30;34.20
16032;DHT22;8120;48.308;8.914;2023-05-29T15:12:50;23.00;34.80
16032;DHT22;8120;48.308;8.914;2023-05-29T15:15:23;23.10;35.20
16032;DHT22;8120;48.308;8.914;2023-05-29T15:18:02;23.10;34.90
16032;DHT22;8120;48.308;8.914;2023-05-29T15:20:30;23.20;35.20
16032;DHT22;8120;48.308;8.914;2023-05-29T15:22:58;23.20;34.70
16032;DHT22;8120;48.308;8.914;2023-05-29T15:25:26;23.10;34.30
16032;DHT22;8120;48.308;8.914;2023-05-29T15:27:55;23.20;35.20
16032;DHT22;8120;48.308;8.914;2023-05-29T15:30:23;23.20;35.00
16032;DHT22;8120;48.308;8.914;2023-05-29T15:32:51;23.10;34.70
16032;DHT22;8120;48.308;8.914;2023-05-29T15:35:19;23.10;35.30
16032;DHT22;8120;48.308;8.914;2023-05-29T15:37:47;22.90;35.20
16032;DHT22;8120;48.308;8.914;2023-05-29T15:40:14;22.80;34.90
16032;DHT22;8120;48.308;8.914;2023-05-29T15:42:42;23.00;34.90
16032;DHT22;8120;48.308;8.914;2023-05-29T15:45:12;22.80;35.20
16032;DHT22;8120;48.308;8.914;2023-05-29T15:47:41;22.80;34.90
16032;DHT22;8120;48.308;8.914;2023-05-29T15:50:09;22.80;34.60
16032;DHT22;8120;48.308;8.914;2023-05-29T15:52:37;23.00;35.10
16032;DHT22;8120;48.308;8.914;2023-05-29T15:55:21;22.80;35.60
16032;DHT22;8120;48.308;8.914;2023-05-29T15:57:49;22.90;36.10
16032;DHT22;8120;48.308;8.914;2023-05-29T16:00:18;23.10;35.80
16032;DHT22;8120;48.308;8.914;2023-05-29T16:02:46;22.90;34.90
16032;DHT22;8120;48.308;8.914;2023-05-29T16:05:16;22.80;35.90
16032;DHT22;8120;48.308;8.914;2023-05-29T16:07:44;23.00;35.60